Time;durP1;ratioP1;P1;durP2;ratioP2;P2;SDS_P1;SDS_P2;PMS_P1;PMS_P2;Temp;Humidity;BMP_temperature;BMP_pressure;BME280_temperature;BME280_humidity;BME280_pressure;Samples;Min_cycle;Max_cycle;Signal;HPM_P1;HPM_P2
2022/05/21 00:01:36;;;;;;;7.40;4.90;;;18.80;86.60;;;;;;5060307;28;20422;-77
2022/05/21 00:04:03;;;;;;;8.83;5.20;;;18.70;86.60;;;;;;5052449;28;20296;-77
2022/05/21 00:06:28;;;;;;;18.43;5.03;;;18.70;86.80;;;;;;5061405;28;20225;-76
2022/05/21 00:08:54;;;;;;;6.90;5.13;;;18.70;86.80;;;;;;5060010;28;20424;-77
2022/05/21 00:11:20;;;;;;;7.40;5.20;;;18.60;86.60;;;;;;5056411;28;20261;-76
2022/05/21 00:13:47;;;;;;;8.53;5.40;;;18.60;86.80;;;;;;5054789;28;20273;-77
2022/05/21 00:16:13;;;;;;;7.70;5.33;;;18.50;87.00;;;;;;5056875;28;20463;-79
2022/05/21 00:18:39;;;;;;;6.50;5.30;;;18.50;87.30;;;;;;5054588;28;20475;-77
2022/05/21 00:21:05;;;;;;;9.57;5.90;;;18.50;87.10;;;;;;5053076;28;20471;-76
2022/05/21 00:23:34;;;;;;;7.27;5.23;;;18.40;87.10;;;;;;5051637;28;20492;-76
2022/05/21 00:26:01;;;;;;;6.93;5.10;;;18.40;86.50;;;;;;5048728;28;20272;-76
2022/05/21 00:28:28;;;;;;;7.57;4.60;;;18.40;87.00;;;;;;5050990;28;20438;-76
2022/05/21 00:30:54;;;;;;;9.50;5.80;;;18.30;87.10;;;;;;5053555;28;20884;-75
2022/05/21 00:33:20;;;;;;;9.27;5.40;;;18.30;86.80;;;;;;5043208;28;20464;-76
2022/05/21 00:35:51;;;;;;;7.33;4.90;;;18.30;87.10;;;;;;5050828;28;21073;-76
2022/05/21 00:38:17;;;;;;;7.10;5.10;;;18.10;87.40;;;;;;5048745;28;20451;-78
2022/05/21 00:40:44;;;;;;;6.40;4.27;;;18.10;87.30;;;;;;5049735;28;20595;-75
2022/05/21 00:43:37;;;;;;;7.37;5.20;;;18.10;87.10;;;;;;5051144;28;20839;-77
2022/05/21 00:46:06;;;;;;;6.37;4.93;;;18.00;86.00;;;;;;5050466;28;20424;-76
2022/05/21 00:48:32;;;;;;;8.03;4.93;;;18.00;85.50;;;;;;5047121;28;20823;-77
2022/05/21 00:50:58;;;;;;;6.97;4.93;;;18.00;85.60;;;;;;5055166;28;20485;-76
2022/05/21 00:53:24;;;;;;;8.37;5.20;;;18.00;86.20;;;;;;5050540;28;20830;-76
2022/05/21 00:55:51;;;;;;;9.97;5.13;;;18.00;86.90;;;;;;5045309;28;20419;-76
2022/05/21 01:01:07;;;;;;;7.50;5.07;;;17.90;87.80;;;;;;5054900;28;20423;-75
2022/05/21 01:03:33;;;;;;;8.00;4.50;;;17.70;87.30;;;;;;5051202;28;20463;-76
2022/05/21 01:06:02;;;;;;;7.63;5.10;;;17.70;87.60;;;;;;5054895;28;20428;-76
2022/05/21 01:08:29;;;;;;;5.97;4.60;;;17.60;87.40;;;;;;5054433;28;20819;-75
2022/05/21 01:11:10;;;;;;;8.50;4.40;;;17.60;87.10;;;;;;5057475;28;20884;-76
2022/05/21 01:13:38;;;;;;;6.60;4.33;;;17.60;86.90;;;;;;5051529;28;20826;-76
2022/05/21 01:16:05;;;;;;;6.37;4.17;;;17.50;86.80;;;;;;5050462;28;20419;-76
2022/05/21 01:18:31;;;;;;;6.13;3.90;;;17.60;86.80;;;;;;5049213;28;21141;-75
2022/05/21 01:20:59;;;;;;;5.33;4.17;;;17.60;86.20;;;;;;5055117;28;20448;-75
2022/05/21 01:23:26;;;;;;;6.47;4.30;;;17.60;85.70;;;;;;5064186;28;20572;-76
2022/05/21 01:25:53;;;;;;;10.37;3.80;;;17.50;85.70;;;;;;5054328;28;20987;-77
2022/05/21 01:28:23;;;;;;;7.30;3.70;;;17.50;86.00;;;;;;5054781;28;20441;-76
2022/05/21 01:30:55;;;;;;;6.00;4.00;;;17.50;85.60;;;;;;5053390;28;20462;-77
2022/05/21 01:33:23;;;;;;;6.20;4.03;;;17.40;85.60;;;;;;5048418;28;20463;-76
2022/05/21 01:35:49;;;;;;;7.00;4.20;;;17.40;84.90;;;;;;5055316;28;20926;-76
2022/05/21 01:38:18;;;;;;;8.20;3.83;;;17.40;84.40;;;;;;5050009;28;20437;-76
2022/05/21 01:40:44;;;;;;;5.30;3.83;;;17.40;84.00;;;;;;5054882;28;20212;-77
2022/05/21 01:45:54;;;;;;;5.00;3.60;;;17.40;83.00;;;;;;5058718;28;20504;-77
2022/05/21 01:48:23;;;;;;;6.53;4.50;;;17.30;83.10;;;;;;5056570;28;20438;-76
2022/05/21 01:50:51;;;;;;;9.10;3.93;;;17.30;82.50;;;;;;5054074;28;20257;-76
2022/05/21 01:53:18;;;;;;;9.90;4.50;;;17.20;82.80;;;;;;5042266;28;20936;-76
2022/05/21 01:55:45;;;;;;;4.67;3.60;;;17.10;83.30;;;;;;5053852;28;20495;-77
2022/05/21 01:58:11;;;;;;;6.40;4.40;;;17.10;83.10;;;;;;5054859;28;20767;-77
2022/05/21 02:00:38;;;;;;;4.10;3.30;;;17.10;83.30;;;;;;5054452;28;20418;-80
2022/05/21 02:03:04;;;;;;;6.30;4.23;;;17.10;83.60;;;;;;5048258;28;21043;-78
2022/05/21 02:05:31;;;;;;;8.67;4.33;;;17.00;83.30;;;;;;5051380;28;20451;-79
2022/05/21 02:07:56;;;;;;;4.70;3.80;;;16.90;84.30;;;;;;5053764;28;21080;-77
2022/05/21 02:10:22;;;;;;;5.50;3.80;;;16.70;84.60;;;;;;5050232;28;20435;-76
2022/05/21 02:12:48;;;;;;;6.83;3.50;;;16.70;84.70;;;;;;5042870;28;20331;-77
2022/05/21 02:15:14;;;;;;;7.20;4.33;;;16.60;84.90;;;;;;5048169;28;20241;-77
2022/05/21 02:17:40;;;;;;;6.93;4.27;;;16.60;85.20;;;;;;5042188;28;20489;-78
2022/05/21 02:20:07;;;;;;;8.10;4.50;;;16.60;85.20;;;;;;5048840;28;20415;-78
2022/05/21 02:22:33;;;;;;;5.23;4.30;;;16.60;85.30;;;;;;5044482;28;20214;-76
2022/05/21 02:24:58;;;;;;;6.40;4.13;;;16.60;85.20;;;;;;5042645;28;20800;-76
2022/05/21 02:27:24;;;;;;;4.90;3.87;;;16.40;85.50;;;;;;5044022;28;20439;-75
2022/05/21 02:29:51;;;;;;;5.53;3.83;;;16.40;85.50;;;;;;5043746;28;20200;-76
2022/05/21 02:32:17;;;;;;;5.50;4.20;;;16.40;85.70;;;;;;5048827;28;20214;-76
2022/05/21 02:34:43;;;;;;;6.87;4.07;;;16.30;85.00;;;;;;5041011;28;20442;-76
2022/05/21 02:39:53;;;;;;;5.80;3.70;;;16.30;85.70;;;;;;5047532;28;20576;-76
2022/05/21 02:45:04;;;;;;;8.40;4.73;;;16.10;86.30;;;;;;5047269;28;20268;-75
2022/05/21 02:47:31;;;;;;;8.73;4.20;;;16.00;86.50;;;;;;5051332;28;20427;-76
2022/05/21 02:49:57;;;;;;;5.10;4.00;;;16.00;86.60;;;;;;5039774;28;20418;-75
2022/05/21 02:52:23;;;;;;;6.57;4.50;;;16.00;86.60;;;;;;5049947;28;20466;-77
2022/05/21 02:54:49;;;;;;;8.30;4.47;;;15.90;86.60;;;;;;5044536;28;20437;-77
2022/05/21 02:57:15;;;;;;;9.13;4.10;;;15.90;86.90;;;;;;5045227;28;20853;-77
2022/05/21 02:59:42;;;;;;;6.20;4.50;;;15.90;87.00;;;;;;5044402;28;20240;-78
2022/05/21 03:02:08;;;;;;;8.70;5.33;;;15.90;87.30;;;;;;5042596;28;20464;-78
2022/05/21 03:04:35;;;;;;;8.40;5.60;;;15.70;88.00;;;;;;5037860;28;20974;-77
2022/05/21 03:07:01;;;;;;;6.40;5.17;;;15.80;87.80;;;;;;5041680;28;20524;-76
2022/05/21 03:12:12;;;;;;;7.57;5.30;;;15.20;89.60;;;;;;5038196;28;20514;-76
2022/05/21 03:14:38;;;;;;;7.17;5.47;;;15.20;89.50;;;;;;5045847;28;20465;-77
2022/05/21 03:17:05;;;;;;;9.07;5.70;;;15.20;89.50;;;;;;5044979;28;20427;-77
2022/05/21 03:19:33;;;;;;;7.43;5.00;;;15.20;89.20;;;;;;5045702;28;20870;-77
2022/05/21 03:21:59;;;;;;;10.03;5.87;;;15.20;89.50;;;;;;5049829;28;20436;-77
2022/05/21 03:24:26;;;;;;;19.33;6.47;;;15.10;89.50;;;;;;5049223;28;20962;-77
2022/05/21 03:26:52;;;;;;;9.43;5.67;;;15.00;89.50;;;;;;5041956;28;20432;-78
2022/05/21 03:29:17;;;;;;;8.00;5.40;;;14.90;89.90;;;;;;5047321;28;20451;-77
2022/05/21 03:31:43;;;;;;;10.20;5.70;;;14.90;89.70;;;;;;5046195;28;20491;-76
2022/05/21 03:34:09;;;;;;;9.07;5.70;;;14.60;90.20;;;;;;5047358;28;20205;-79
2022/05/21 03:36:36;;;;;;;6.93;5.37;;;14.60;90.50;;;;;;5051256;28;20200;-78
2022/05/21 03:39:02;;;;;;;7.97;5.30;;;14.70;90.30;;;;;;5054030;28;20416;-76
2022/05/21 03:41:28;;;;;;;7.03;5.43;;;14.60;90.40;;;;;;5053258;28;20441;-79
2022/05/21 03:43:55;;;;;;;8.33;5.87;;;14.60;90.10;;;;;;5056107;28;20527;-76
2022/05/21 03:46:21;;;;;;;9.40;6.10;;;14.60;90.20;;;;;;5064052;28;20196;-77
2022/05/21 03:48:47;;;;;;;7.70;5.60;;;14.60;90.10;;;;;;5074936;28;20487;-77
2022/05/21 03:51:14;;;;;;;9.10;5.67;;;14.50;90.00;;;;;;5061539;28;20550;-77
2022/05/21 03:53:39;;;;;;;11.90;5.60;;;14.50;90.40;;;;;;5053440;28;20462;-78
2022/05/21 03:56:06;;;;;;;9.00;5.40;;;14.50;90.40;;;;;;5054172;28;20856;-79
2022/05/21 03:58:33;;;;;;;14.00;6.20;;;14.60;90.20;;;;;;5051867;28;20501;-77
2022/05/21 04:00:58;;;;;;;11.30;5.50;;;14.60;90.00;;;;;;5056546;28;20419;-78
2022/05/21 04:03:25;;;;;;;7.83;5.40;;;14.60;89.90;;;;;;5050607;28;20466;-78
2022/05/21 04:05:54;;;;;;;6.50;4.67;;;14.60;90.00;;;;;;5047031;28;20176;-77
2022/05/21 04:08:20;;;;;;;9.97;5.50;;;14.70;89.90;;;;;;5053687;28;20824;-77
2022/05/21 04:10:47;;;;;;;9.73;5.37;;;14.80;89.00;;;;;;5050383;28;20455;-77
2022/05/21 04:13:13;;;;;;;6.60;4.93;;;14.60;89.20;;;;;;5061241;28;20716;-77
2022/05/21 04:15:39;;;;;;;6.13;5.37;;;14.60;89.50;;;;;;5054572;28;20451;-78
2022/05/21 04:18:05;;;;;;;9.43;6.00;;;14.80;89.20;;;;;;5050829;28;20861;-78
2022/05/21 04:20:31;;;;;;;8.70;5.30;;;14.60;88.00;;;;;;5052295;28;20185;-78
2022/05/21 04:22:56;;;;;;;7.63;5.10;;;14.50;88.60;;;;;;5048520;28;20451;-76
2022/05/21 04:25:22;;;;;;;8.93;5.30;;;14.50;88.40;;;;;;5049632;28;20178;-78
2022/05/21 04:27:48;;;;;;;6.70;4.57;;;14.40;88.40;;;;;;5054056;28;20224;-80
2022/05/21 04:30:20;;;;;;;6.30;4.33;;;14.50;88.70;;;;;;5054111;28;20455;-78
2022/05/21 04:32:46;;;;;;;8.03;5.37;;;14.60;88.60;;;;;;5052700;28;20240;-80
2022/05/21 04:35:13;;;;;;;9.90;4.80;;;14.70;88.00;;;;;;5048296;28;20447;-77
2022/05/21 04:37:40;;;;;;;8.87;4.43;;;14.70;85.50;;;;;;5039789;28;20488;-76
2022/05/21 04:40:09;;;;;;;6.63;4.03;;;14.70;85.60;;;;;;5043150;28;20418;-79
2022/05/21 04:42:35;;;;;;;10.47;4.43;;;14.70;86.00;;;;;;5039064;28;20439;-79
2022/05/21 04:45:03;;;;;;;7.97;4.00;;;14.80;85.50;;;;;;5047867;28;20584;-78
2022/05/21 04:47:28;;;;;;;6.73;4.60;;;14.80;84.70;;;;;;5049470;28;20454;-78
2022/05/21 04:49:54;;;;;;;5.53;4.00;;;14.80;84.10;;;;;;5049628;28;20450;-77
2022/05/21 04:52:20;;;;;;;5.70;4.30;;;14.80;83.70;;;;;;5043337;28;20235;-77
2022/05/21 04:54:46;;;;;;;5.63;4.77;;;14.70;84.30;;;;;;5043200;28;20695;-78
2022/05/21 04:57:11;;;;;;;6.07;3.77;;;14.70;83.80;;;;;;5050062;28;20211;-77
2022/05/21 04:59:37;;;;;;;6.80;4.30;;;14.80;83.70;;;;;;5050173;28;20181;-77
2022/05/21 05:02:05;;;;;;;5.60;4.20;;;14.70;83.60;;;;;;5041432;28;20184;-77
2022/05/21 05:04:32;;;;;;;8.37;4.53;;;14.80;83.30;;;;;;5042866;28;20475;-78
2022/05/21 05:06:57;;;;;;;7.20;4.00;;;14.80;83.30;;;;;;5045495;28;20755;-75
2022/05/21 05:09:24;;;;;;;5.93;4.17;;;14.90;83.10;;;;;;5047119;28;20431;-77
2022/05/21 05:11:51;;;;;;;6.10;3.93;;;14.90;82.40;;;;;;5045353;28;20623;-76
2022/05/21 05:14:17;;;;;;;6.00;3.40;;;14.90;82.70;;;;;;5056216;28;20463;-76
2022/05/21 05:16:43;;;;;;;4.60;3.47;;;15.00;82.50;;;;;;5053333;28;20411;-77
2022/05/21 05:19:09;;;;;;;5.80;3.90;;;15.10;82.70;;;;;;5043827;28;20430;-76
2022/05/21 05:21:35;;;;;;;7.70;3.57;;;15.10;82.80;;;;;;5045010;28;20516;-76
2022/05/21 05:24:01;;;;;;;5.07;3.47;;;15.10;82.70;;;;;;5052704;28;20434;-75
2022/05/21 05:26:27;;;;;;;5.80;3.80;;;15.20;81.50;;;;;;5057034;28;20428;-74
2022/05/21 05:28:53;;;;;;;5.60;3.93;;;15.20;80.50;;;;;;5058218;28;20245;-75
2022/05/21 05:31:19;;;;;;;5.90;3.30;;;15.10;81.20;;;;;;5056476;28;20231;-76
2022/05/21 05:33:45;;;;;;;6.80;3.47;;;15.20;81.70;;;;;;5047342;28;20455;-76
2022/05/21 05:36:10;;;;;;;6.67;3.77;;;15.30;80.90;;;;;;5052728;28;20465;-76
2022/05/21 05:38:36;;;;;;;5.30;3.70;;;15.40;80.00;;;;;;5055083;28;20420;-75
2022/05/21 05:41:05;;;;;;;5.00;3.97;;;15.40;79.60;;;;;;5058368;28;20191;-76
2022/05/21 05:43:31;;;;;;;4.40;3.50;;;15.40;78.60;;;;;;5056707;28;20209;-77
2022/05/21 05:45:58;;;;;;;4.50;3.10;;;15.40;78.60;;;;;;5061167;28;20426;-76
2022/05/21 05:48:25;;;;;;;5.50;3.20;;;15.50;78.60;;;;;;5061309;28;20276;-76
2022/05/21 05:50:51;;;;;;;5.57;3.10;;;15.50;76.40;;;;;;5069443;28;20457;-75
2022/05/21 05:53:17;;;;;;;6.37;2.80;;;15.50;77.30;;;;;;5066031;28;20491;-77
2022/05/21 05:55:42;;;;;;;5.67;3.27;;;15.60;77.30;;;;;;5067281;28;20168;-77
2022/05/21 06:00:54;;;;;;;4.60;3.03;;;15.80;76.20;;;;;;5060073;28;20239;-76
2022/05/21 06:03:20;;;;;;;3.97;2.73;;;15.90;76.70;;;;;;5055889;28;20477;-76
2022/05/21 06:05:47;;;;;;;3.07;2.77;;;15.90;74.50;;;;;;5055994;28;20536;-75
2022/05/21 06:08:13;;;;;;;4.80;2.93;;;16.00;74.00;;;;;;5052227;28;20420;-78
2022/05/21 06:10:43;;;;;;;4.07;2.47;;;16.00;71.60;;;;;;5066160;28;20434;-77
2022/05/21 06:13:09;;;;;;;4.63;2.63;;;16.00;71.40;;;;;;5053960;28;20543;-77
2022/05/21 06:15:35;;;;;;;3.60;2.60;;;15.80;71.70;;;;;;5062879;28;20492;-78
2022/05/21 06:18:10;;;;;;;4.50;2.97;;;15.80;71.00;;;;;;5063166;28;20435;-76
2022/05/21 06:20:36;;;;;;;5.10;2.40;;;15.70;72.30;;;;;;5045800;28;20430;-77
2022/05/21 06:23:02;;;;;;;3.97;2.70;;;15.70;72.30;;;;;;5053113;28;20445;-77
2022/05/21 06:25:33;;;;;;;4.97;2.57;;;15.80;72.10;;;;;;5057502;28;20462;-77
2022/05/21 06:27:59;;;;;;;2.73;2.30;;;15.90;70.80;;;;;;5058598;28;20427;-77
2022/05/21 06:30:27;;;;;;;7.83;2.30;;;15.90;70.70;;;;;;5059120;28;20651;-77
2022/05/21 06:32:53;;;;;;;3.30;2.00;;;16.00;71.40;;;;;;5054301;28;20539;-78
2022/05/21 06:35:20;;;;;;;6.27;2.37;;;16.10;70.10;;;;;;5047470;28;20431;-79
2022/05/21 06:37:46;;;;;;;3.13;2.10;;;16.20;70.40;;;;;;5056393;28;20425;-77
2022/05/21 06:40:14;;;;;;;5.00;2.30;;;16.30;69.70;;;;;;5059758;28;20803;-77
2022/05/21 06:42:40;;;;;;;3.30;2.20;;;16.40;68.80;;;;;;5052904;28;20438;-77
2022/05/21 06:45:07;;;;;;;3.37;1.93;;;16.40;66.70;;;;;;5052602;28;20968;-78
2022/05/21 06:47:33;;;;;;;7.27;2.10;;;16.50;67.50;;;;;;5051906;28;20452;-78
2022/05/21 06:49:59;;;;;;;3.27;2.07;;;16.60;67.50;;;;;;5052197;28;20523;-79
2022/05/21 06:52:26;;;;;;;2.67;1.80;;;16.80;67.00;;;;;;5049632;28;20262;-78
2022/05/21 06:54:53;;;;;;;4.97;2.13;;;16.80;65.80;;;;;;5045331;28;20940;-78
2022/05/21 06:57:19;;;;;;;2.20;1.80;;;16.70;65.80;;;;;;5052056;28;20450;-77
2022/05/21 06:59:45;;;;;;;3.87;2.37;;;16.60;67.50;;;;;;5042635;28;20419;-78
2022/05/21 07:02:11;;;;;;;2.63;2.00;;;16.80;67.00;;;;;;5052974;28;20460;-79
2022/05/21 07:07:34;;;;;;;3.97;1.70;;;16.90;65.30;;;;;;5050455;28;20437;-79
2022/05/21 07:10:09;;;;;;;3.17;1.97;;;16.90;65.70;;;;;;5049088;28;20589;-78
2022/05/21 07:12:35;;;;;;;2.43;2.00;;;16.90;65.80;;;;;;5044409;28;20465;-78
2022/05/21 07:15:03;;;;;;;2.90;2.33;;;16.80;66.30;;;;;;5045884;28;20556;-77
2022/05/21 07:17:29;;;;;;;3.33;2.20;;;16.80;67.00;;;;;;5051417;28;20840;-80
2022/05/21 07:19:54;;;;;;;4.23;2.67;;;16.80;66.70;;;;;;5050777;28;20414;-76
2022/05/21 07:22:21;;;;;;;2.90;1.70;;;16.80;67.50;;;;;;5048382;28;20648;-78
2022/05/21 07:24:46;;;;;;;4.50;1.90;;;16.90;66.70;;;;;;5049964;28;21072;-80
2022/05/21 07:27:12;;;;;;;3.30;1.60;;;16.90;66.60;;;;;;5055062;28;20433;-78
2022/05/21 07:29:39;;;;;;;5.57;1.90;;;17.00;67.20;;;;;;5051170;28;20185;-79
2022/05/21 07:32:14;;;;;;;2.60;1.80;;;17.00;67.20;;;;;;5048651;28;20837;-78
2022/05/21 07:34:40;;;;;;;6.37;1.90;;;17.10;67.00;;;;;;5051446;28;20976;-79
2022/05/21 07:37:05;;;;;;;5.80;1.80;;;17.20;65.40;;;;;;5051580;28;20426;-79
2022/05/21 07:39:31;;;;;;;2.30;1.50;;;17.10;65.70;;;;;;5057569;28;20214;-79
2022/05/21 07:41:57;;;;;;;1.87;1.20;;;17.20;64.70;;;;;;5056861;28;20199;-77
2022/05/21 07:44:23;;;;;;;1.70;1.43;;;17.20;64.80;;;;;;5056463;28;20200;-78
2022/05/21 07:46:49;;;;;;;5.73;1.80;;;17.20;65.10;;;;;;5061618;28;20282;-78
2022/05/21 07:49:15;;;;;;;3.80;1.73;;;17.30;63.50;;;;;;5058540;28;20885;-78
2022/05/21 07:51:41;;;;;;;2.77;1.53;;;17.30;63.70;;;;;;5059127;28;20467;-78
2022/05/21 07:54:07;;;;;;;4.50;1.50;;;17.20;63.90;;;;;;5056671;28;20220;-76
2022/05/21 07:56:33;;;;;;;2.50;1.20;;;17.10;63.90;;;;;;5055508;28;21095;-77
2022/05/21 07:58:59;;;;;;;3.57;1.40;;;17.00;63.80;;;;;;5059373;28;20207;-78
2022/05/21 08:01:24;;;;;;;2.23;1.43;;;17.10;63.40;;;;;;5065952;28;20438;-79
2022/05/21 08:03:51;;;;;;;2.57;1.57;;;17.20;63.50;;;;;;5059194;28;20628;-77
2022/05/21 08:06:18;;;;;;;3.43;1.37;;;17.30;64.10;;;;;;5055963;28;20462;-79
2022/05/21 08:08:45;;;;;;;3.60;1.40;;;17.50;63.20;;;;;;5056005;28;20174;-79
2022/05/21 08:11:10;;;;;;;3.07;1.33;;;17.50;62.90;;;;;;5065404;28;20519;-79
2022/05/21 08:13:36;;;;;;;2.03;1.50;;;17.60;62.60;;;;;;5055005;28;20465;-78
2022/05/21 08:16:02;;;;;;;1.90;1.10;;;17.70;62.20;;;;;;5056508;28;20435;-80
2022/05/21 08:18:28;;;;;;;3.30;1.30;;;17.70;61.70;;;;;;5051670;28;20191;-79
2022/05/21 08:20:55;;;;;;;2.73;1.70;;;17.70;62.90;;;;;;5057793;28;20430;-79
2022/05/21 08:28:49;;;;;;;3.00;1.20;;;17.80;63.50;;;;;;5055066;28;20461;-76
2022/05/21 08:31:16;;;;;;;2.80;1.40;;;18.10;62.60;;;;;;5055629;28;20471;-77
2022/05/21 08:33:42;;;;;;;2.60;1.30;;;18.20;61.20;;;;;;5056421;28;20455;-79
2022/05/21 08:36:08;;;;;;;2.40;1.30;;;18.30;61.30;;;;;;5051479;28;20492;-78
2022/05/21 08:38:33;;;;;;;2.17;1.10;;;18.30;60.70;;;;;;5057119;28;20510;-79
2022/05/21 08:41:03;;;;;;;2.90;1.60;;;18.00;61.20;;;;;;5057173;28;20902;-78
2022/05/21 08:43:35;;;;;;;3.43;1.50;;;18.00;62.20;;;;;;5056314;28;20690;-80
2022/05/21 08:46:20;;;;;;;2.57;1.37;;;18.00;62.20;;;;;;5054533;28;20430;-78
2022/05/21 08:48:56;;;;;;;1.53;1.00;;;18.10;61.30;;;;;;5057160;28;20427;-78
2022/05/21 08:51:26;;;;;;;2.30;1.10;;;18.10;61.20;;;;;;5058292;28;20820;-78
2022/05/21 08:53:53;;;;;;;1.97;1.40;;;18.10;60.60;;;;;;5051723;28;20482;-79
2022/05/21 08:56:20;;;;;;;2.27;1.20;;;18.20;60.60;;;;;;5054259;28;20442;-79
2022/05/21 08:58:55;;;;;;;3.67;1.13;;;18.10;60.70;;;;;;5056925;28;20419;-80
2022/05/21 09:01:24;;;;;;;2.23;1.10;;;18.00;61.50;;;;;;5053104;28;20447;-80
2022/05/21 09:03:52;;;;;;;1.57;1.53;;;18.20;59.50;;;;;;5053219;28;20463;-80
2022/05/21 09:06:18;;;;;;;2.50;1.10;;;18.30;60.60;;;;;;5047734;28;20774;-78
2022/05/21 09:08:59;;;;;;;1.53;1.20;;;18.40;60.10;;;;;;5057186;28;20427;-78
2022/05/21 09:11:37;;;;;;;3.80;1.30;;;18.60;60.30;;;;;;5058626;28;20267;-79
2022/05/21 09:14:24;;;;;;;2.57;1.20;;;18.50;59.20;;;;;;5043575;28;20531;-78
2022/05/21 09:16:57;;;;;;;2.70;1.20;;;18.30;60.70;;;;;;5053399;28;20410;-78
2022/05/21 09:19:34;;;;;;;2.83;2.23;;;18.20;60.90;;;;;;5051747;28;20495;-80
2022/05/21 09:22:02;;;;;;;1.57;1.20;;;18.30;61.60;;;;;;5058199;28;20431;-78
2022/05/21 09:24:33;;;;;;;5.20;1.60;;;18.40;60.70;;;;;;5055394;28;20489;-78
2022/05/21 09:26:58;;;;;;;3.00;1.50;;;18.50;60.60;;;;;;5058524;28;20430;-80
2022/05/21 09:29:33;;;;;;;3.57;1.57;;;18.50;61.50;;;;;;5059338;28;20431;-78
2022/05/21 09:32:14;;;;;;;2.43;1.30;;;18.60;61.50;;;;;;5059204;28;20686;-77
2022/05/21 09:34:40;;;;;;;2.50;1.47;;;18.60;61.60;;;;;;5056112;28;20459;-78
2022/05/21 09:37:16;;;;;;;2.20;1.60;;;18.60;61.00;;;;;;5058229;28;20457;-77
2022/05/21 09:39:42;;;;;;;2.03;1.30;;;18.70;61.50;;;;;;5054974;28;20181;-77
2022/05/21 09:47:45;;;;;;;4.00;1.53;;;18.60;61.50;;;;;;5056995;28;20424;-77
2022/05/21 09:50:11;;;;;;;2.40;1.70;;;18.60;61.00;;;;;;5059909;28;20429;-78
2022/05/21 09:52:38;;;;;;;5.23;1.50;;;18.70;60.90;;;;;;5061728;28;20208;-76
2022/05/21 09:55:17;;;;;;;2.80;1.20;;;18.90;61.00;;;;;;5056516;28;20841;-77
2022/05/21 09:57:43;;;;;;;2.77;1.67;;;19.20;60.40;;;;;;5048555;28;20446;-78
2022/05/21 10:00:32;;;;;;;2.50;1.43;;;19.20;59.70;;;;;;5055846;28;20552;-78
2022/05/21 10:03:01;;;;;;;4.20;1.60;;;19.50;60.10;;;;;;5044477;28;20460;-77
2022/05/21 10:05:50;;;;;;;3.40;1.67;;;20.20;58.70;;;;;;5053233;28;20938;-79
2022/05/21 10:11:29;;;;;;;3.83;1.87;;;20.30;56.50;;;;;;5055965;28;20471;-77
2022/05/21 10:14:06;;;;;;;4.57;1.63;;;20.00;57.70;;;;;;5051060;28;20485;-77
2022/05/21 10:17:07;;;;;;;2.17;1.47;;;19.60;59.10;;;;;;5056627;28;20411;-78
2022/05/21 10:19:53;;;;;;;2.90;1.30;;;19.90;59.20;;;;;;5029330;28;20819;-78
2022/05/21 10:22:44;;;;;;;3.40;1.47;;;20.30;57.40;;;;;;5035395;28;20442;-78
2022/05/21 10:25:19;;;;;;;2.77;1.50;;;20.30;57.40;;;;;;5039619;28;20437;-77
2022/05/21 10:27:45;;;;;;;3.77;1.30;;;20.20;58.10;;;;;;5045695;28;21155;-78
2022/05/21 10:30:26;;;;;;;4.10;1.60;;;20.30;57.70;;;;;;5026077;28;20460;-77
2022/05/21 10:33:40;;;;;;;2.20;1.50;;;20.70;56.60;;;;;;5029586;28;21032;-76
2022/05/21 10:36:26;;;;;;;2.40;1.50;;;20.70;56.50;;;;;;4983241;28;20446;-76
2022/05/21 10:39:14;;;;;;;3.37;1.60;;;20.40;57.40;;;;;;4971647;28;20456;-77
2022/05/21 10:41:48;;;;;;;2.97;1.50;;;20.10;57.30;;;;;;4962501;28;20493;-77
2022/05/21 10:44:30;;;;;;;3.13;1.37;;;20.00;58.50;;;;;;4958587;28;20810;-77
2022/05/21 10:46:56;;;;;;;4.87;1.90;;;20.50;57.60;;;;;;4971862;28;20438;-77
2022/05/21 10:49:59;;;;;;;2.60;1.70;;;20.40;57.20;;;;;;4976645;28;20485;-78
2022/05/21 10:52:31;;;;;;;5.60;2.30;;;20.30;57.40;;;;;;4979851;28;20482;-78
2022/05/21 10:55:21;;;;;;;2.73;1.30;;;20.50;57.40;;;;;;4996791;28;20450;-77
2022/05/21 10:58:14;;;;;;;3.77;1.93;;;20.90;56.80;;;;;;4988470;28;20404;-76
2022/05/21 11:01:15;;;;;;;1.97;1.50;;;21.20;55.00;;;;;;4997415;28;21001;-78
2022/05/21 11:03:51;;;;;;;2.83;2.00;;;21.20;55.60;;;;;;4995142;28;20563;-77
2022/05/21 11:06:37;;;;;;;1.73;1.23;;;20.70;55.80;;;;;;4998955;28;21257;-78
2022/05/21 11:09:27;;;;;;;3.07;1.50;;;20.80;56.00;;;;;;5003824;28;20486;-77
2022/05/21 11:12:34;;;;;;;2.17;1.63;;;21.30;55.00;;;;;;5021119;28;20466;-77
2022/05/21 11:15:20;;;;;;;3.30;1.80;;;21.50;53.40;;;;;;5007733;28;20960;-77
2022/05/21 11:18:02;;;;;;;3.13;1.70;;;21.00;54.60;;;;;;4988613;28;20586;-77
2022/05/21 11:20:38;;;;;;;2.20;1.57;;;21.60;54.50;;;;;;5004775;28;20424;-78
2022/05/21 11:23:07;;;;;;;1.90;1.43;;;21.40;54.20;;;;;;5011378;28;20537;-76
2022/05/21 11:25:48;;;;;;;3.57;1.30;;;21.50;54.10;;;;;;5016552;28;20408;-78
2022/05/21 11:28:34;;;;;;;3.50;1.67;;;21.70;53.40;;;;;;5014062;28;20519;-77
2022/05/21 11:39:45;;;;;;;2.43;1.47;;;21.80;52.50;;;;;;5010751;28;20423;-78
2022/05/21 11:42:16;;;;;;;2.47;1.50;;;21.10;54.10;;;;;;5005687;28;20498;-78
2022/05/21 11:45:11;;;;;;;5.70;1.77;;;21.50;53.80;;;;;;4992899;28;20212;-76
2022/05/21 11:47:41;;;;;;;8.63;1.50;;;21.50;52.50;;;;;;5052112;28;20416;-77
2022/05/21 11:50:36;;;;;;;4.43;1.60;;;21.40;52.90;;;;;;5053168;28;21082;-77
2022/05/21 11:53:29;;;;;;;4.10;1.73;;;21.50;52.80;;;;;;5047241;28;20490;-77
2022/05/21 11:56:08;;;;;;;5.27;1.87;;;21.80;52.80;;;;;;5052001;28;20503;-77
2022/05/21 11:58:58;;;;;;;3.67;1.50;;;22.20;52.60;;;;;;5057792;28;20419;-77
2022/05/21 12:01:36;;;;;;;3.57;1.60;;;23.00;50.20;;;;;;5058727;28;20421;-76
2022/05/21 12:04:02;;;;;;;3.00;1.63;;;23.00;48.60;;;;;;5062581;28;20445;-78
2022/05/21 12:06:39;;;;;;;3.40;1.70;;;22.60;49.70;;;;;;5065533;28;20798;-79
2022/05/21 12:09:21;;;;;;;2.57;1.73;;;23.00;50.30;;;;;;5071745;28;20491;-77
2022/05/21 12:11:47;;;;;;;2.80;1.50;;;23.70;46.90;;;;;;5068658;28;20482;-79
2022/05/21 12:14:15;;;;;;;3.83;1.40;;;22.90;48.10;;;;;;5059679;28;20596;-75
2022/05/21 12:16:44;;;;;;;4.20;2.10;;;22.70;48.90;;;;;;5062215;28;20238;-76
2022/05/21 12:19:56;;;;;;;1.73;1.30;;;22.70;48.70;;;;;;5066570;28;20938;-76
2022/05/21 12:22:41;;;;;;;4.10;1.60;;;22.40;48.90;;;;;;5058718;28;20517;-76
2022/05/21 12:25:37;;;;;;;3.73;1.63;;;22.10;49.90;;;;;;5057290;28;20433;-78
2022/05/21 12:28:04;;;;;;;3.60;1.80;;;22.40;49.40;;;;;;5056135;28;20481;-77
2022/05/21 12:30:30;;;;;;;3.30;1.43;;;22.60;47.70;;;;;;5062276;28;20427;-78
2022/05/21 12:32:56;;;;;;;3.03;1.67;;;22.80;48.20;;;;;;5056208;28;20604;-77
2022/05/21 12:35:25;;;;;;;1.70;1.20;;;23.10;47.30;;;;;;5066664;28;20243;-77
2022/05/21 12:38:06;;;;;;;4.03;1.50;;;22.50;48.20;;;;;;5059199;28;20424;-77
2022/05/21 12:40:41;;;;;;;9.07;1.83;;;22.40;48.20;;;;;;5064931;28;20629;-77
2022/05/21 12:43:14;;;;;;;3.50;1.90;;;22.40;48.50;;;;;;5058756;28;20512;-77
2022/05/21 12:45:48;;;;;;;4.03;1.83;;;22.60;47.90;;;;;;5058772;28;21010;-78
2022/05/21 12:48:35;;;;;;;2.90;1.53;;;23.30;47.00;;;;;;5064438;28;20473;-78
2022/05/21 12:51:06;;;;;;;4.37;1.67;;;23.60;46.20;;;;;;5053899;28;20461;-77
2022/05/21 12:53:34;;;;;;;2.77;1.67;;;23.00;46.10;;;;;;5055577;28;20466;-77
2022/05/21 12:56:12;;;;;;;4.10;2.00;;;23.20;47.40;;;;;;5055775;28;20447;-77
2022/05/21 12:58:39;;;;;;;1.90;1.40;;;23.50;47.10;;;;;;5056451;28;20417;-77
2022/05/21 13:01:05;;;;;;;3.97;1.20;;;23.80;44.30;;;;;;5056503;28;20455;-77
2022/05/21 13:03:34;;;;;;;4.30;1.47;;;23.80;43.50;;;;;;5047668;28;20462;-78
2022/05/21 13:06:07;;;;;;;3.00;1.80;;;23.60;44.10;;;;;;5053137;28;20509;-77
2022/05/21 13:08:36;;;;;;;2.33;1.50;;;23.90;43.20;;;;;;5054343;28;20424;-77
2022/05/21 13:11:14;;;;;;;2.00;1.50;;;23.40;44.30;;;;;;5054483;28;20512;-77
2022/05/21 13:13:42;;;;;;;3.53;1.53;;;23.50;45.10;;;;;;5046281;28;20467;-76
2022/05/21 13:16:14;;;;;;;2.33;1.50;;;23.40;45.00;;;;;;5054817;28;20410;-77
2022/05/21 13:19:08;;;;;;;2.60;1.50;;;23.70;44.60;;;;;;5047765;28;20436;-77
2022/05/21 13:21:43;;;;;;;3.60;1.70;;;23.20;44.50;;;;;;5054823;28;20402;-77
2022/05/21 13:24:27;;;;;;;2.83;1.70;;;23.40;45.10;;;;;;5056737;28;20835;-76
2022/05/21 13:27:11;;;;;;;2.43;1.60;;;24.10;43.90;;;;;;5060378;28;20508;-77
2022/05/21 13:29:39;;;;;;;5.50;1.70;;;24.40;42.00;;;;;;5058281;28;20437;-76
2022/05/21 13:32:28;;;;;;;2.37;1.50;;;24.20;41.80;;;;;;5060385;28;20466;-76
2022/05/21 13:34:56;;;;;;;1.50;1.20;;;23.70;41.90;;;;;;5052417;28;20418;-75
2022/05/21 13:37:26;;;;;;;2.27;1.40;;;24.00;41.60;;;;;;5055926;28;20414;-76
2022/05/21 13:40:00;;;;;;;3.63;1.30;;;23.10;43.40;;;;;;5055965;28;20406;-76
2022/05/21 13:42:26;;;;;;;2.40;1.53;;;23.30;43.10;;;;;;5056400;28;20495;-76
2022/05/21 13:44:59;;;;;;;2.20;1.53;;;23.80;42.80;;;;;;5050269;28;20447;-75